Time;durP1;ratioP1;P1;durP2;ratioP2;P2;SDS_P1;SDS_P2;PMS_P1;PMS_P2;Temp;Humidity;BMP_temperature;BMP_pressure;BME280_temperature;BME280_humidity;BME280_pressure;Samples;Min_cycle;Max_cycle;Signal;HPM_P1;HPM_P2
2022/04/25 00:01:03;;;;;;;15.45;13.30;;;;;;;9.86;65.06;99854.31;5013004;28;20028;-25
2022/04/25 00:03:28;;;;;;;14.57;12.95;;;;;;;9.86;65.29;99853.44;5043954;28;20449;-27
2022/04/25 00:05:53;;;;;;;15.30;13.40;;;;;;;9.85;64.98;99857.84;5043572;28;20032;-25
2022/04/25 00:08:19;;;;;;;15.25;13.43;;;;;;;9.85;65.60;99857.84;5039342;28;20033;-29
2022/04/25 00:10:46;;;;;;;15.55;13.05;;;;;;;9.85;65.42;99857.84;5043976;28;20029;-27
2022/04/25 00:13:13;;;;;;;14.15;12.68;;;;;;;9.85;65.59;99868.38;5034925;28;20030;-24
2022/04/25 00:15:38;;;;;;;14.30;12.65;;;;;;;9.83;66.13;99870.16;5041526;28;20489;-24
2022/04/25 00:18:04;;;;;;;16.20;12.18;;;;;;;9.82;66.30;99860.53;5024638;28;20039;-25
2022/04/25 00:20:29;;;;;;;14.30;11.05;;;;;;;9.82;66.34;99871.06;5042860;28;20087;-28
2022/04/25 00:22:55;;;;;;;13.00;11.20;;;;;;;9.82;66.38;99868.44;5044911;28;20484;-27
2022/04/25 00:25:20;;;;;;;14.30;11.23;;;;;;;9.81;66.59;99871.97;5045257;28;20036;-25
2022/04/25 00:27:46;;;;;;;12.30;11.00;;;;;;;9.80;66.58;99869.38;5039659;28;20033;-24
2022/04/25 00:30:11;;;;;;;10.65;9.50;;;;;;;9.80;66.64;99878.13;5043094;28;20029;-28
2022/04/25 00:32:36;;;;;;;10.35;9.10;;;;;;;9.78;66.30;99879.91;5055704;28;20017;-25
2022/04/25 00:35:06;;;;;;;10.48;9.43;;;;;;;9.78;66.40;99882.56;5040160;28;20100;-24
2022/04/25 00:37:31;;;;;;;11.95;9.32;;;;;;;9.77;66.31;99882.59;5046767;28;20136;-31
2022/04/25 00:39:56;;;;;;;10.65;9.10;;;;;;;9.75;66.73;99887.88;5039350;28;20469;-24
2022/04/25 00:42:22;;;;;;;10.73;9.35;;;;;;;9.74;66.27;99892.25;5041048;28;20020;-25
2022/04/25 00:44:48;;;;;;;10.60;8.90;;;;;;;9.73;67.09;99887.91;5041588;28;20078;-26
2022/04/25 00:47:13;;;;;;;9.40;8.48;;;;;;;9.73;66.90;99893.16;5041514;28;20020;-25
2022/04/25 00:49:39;;;;;;;10.48;8.18;;;;;;;9.73;66.99;99900.19;5041711;28;20186;-27
2022/04/25 00:52:05;;;;;;;11.30;8.88;;;;;;;9.72;67.14;99893.19;5046807;28;20111;-25
2022/04/25 00:54:32;;;;;;;9.98;8.05;;;;;;;9.71;66.91;99892.31;5042329;28;20109;-27
2022/04/25 00:56:57;;;;;;;12.70;8.65;;;;;;;9.70;66.83;99887.94;5040818;28;20068;-25
2022/04/25 00:59:24;;;;;;;11.88;9.00;;;;;;;9.68;67.04;99897.66;5046544;28;20104;-25
2022/04/25 01:01:51;;;;;;;9.93;7.00;;;;;;;9.63;67.00;99884.56;5045750;28;20036;-25
2022/04/25 01:04:16;;;;;;;11.25;7.32;;;;;;;9.65;66.75;99889.81;5043805;28;20025;-28
2022/04/25 01:06:42;;;;;;;10.98;8.23;;;;;;;9.66;66.45;99888.03;5046107;28;20033;-33
2022/04/25 01:09:07;;;;;;;11.98;7.70;;;;;;;9.64;66.50;99882.81;5039825;28;20034;-25
2022/04/25 01:11:33;;;;;;;10.60;7.90;;;;;;;9.61;66.49;99881.06;5043378;28;20108;-27
2022/04/25 01:14:10;;;;;;;10.90;8.40;;;;;;;9.59;66.49;99876.75;5045948;28;20036;-25
2022/04/25 01:16:35;;;;;;;8.45;7.47;;;;;;;9.57;66.30;99874.13;5047052;28;20032;-25
2022/04/25 01:19:00;;;;;;;10.55;6.97;;;;;;;9.56;66.25;99861.88;5044496;28;20032;-24
2022/04/25 01:21:26;;;;;;;10.65;7.65;;;;;;;9.54;66.30;99862.81;5041163;28;20042;-24
2022/04/25 01:29:20;;;;;;;8.63;7.20;;;;;;;9.48;66.04;99861.16;5044862;28;20099;-24
2022/04/25 01:31:45;;;;;;;8.55;7.75;;;;;;;9.46;66.78;99869.06;5043283;28;20033;-24
2022/04/25 01:34:10;;;;;;;9.35;7.25;;;;;;;9.43;66.64;99876.13;5043504;28;20025;-24
2022/04/25 01:36:36;;;;;;;8.05;7.22;;;;;;;9.41;66.63;99870.03;5050083;28;20029;-25
2022/04/25 01:39:01;;;;;;;8.73;7.82;;;;;;;9.37;66.21;99872.72;5030759;28;20388;-24
2022/04/25 01:41:26;;;;;;;8.15;7.13;;;;;;;9.39;66.07;99911.28;5049262;28;20472;-29
2022/04/25 01:43:52;;;;;;;11.18;7.25;;;;;;;9.36;65.97;99931.53;5048798;28;20028;-24
2022/04/25 01:46:17;;;;;;;11.60;7.72;;;;;;;9.35;66.29;99947.34;5043416;28;20021;-24
2022/04/25 01:48:43;;;;;;;10.32;7.80;;;;;;;9.33;66.40;99939.47;5042531;28;20037;-27
2022/04/25 01:51:08;;;;;;;9.82;8.02;;;;;;;9.31;66.30;99940.38;5032908;28;20033;-24
2022/04/25 01:53:33;;;;;;;11.95;7.25;;;;;;;9.29;66.31;99936.91;5042934;28;20279;-24
2022/04/25 01:55:59;;;;;;;7.97;7.18;;;;;;;9.28;66.12;99941.31;5043925;28;20563;-28
2022/04/25 01:58:25;;;;;;;8.73;6.93;;;;;;;9.26;66.37;99929.03;5043384;28;20052;-27
2022/04/25 02:00:50;;;;;;;11.93;8.20;;;;;;;9.23;66.68;99927.34;5044937;28;20028;-24
2022/04/25 02:03:15;;;;;;;7.82;7.03;;;;;;;9.21;66.40;99929.13;5026381;28;20491;-28
2022/04/25 02:05:41;;;;;;;10.90;8.05;;;;;;;9.20;66.24;99930.00;5042825;28;20337;-26
2022/04/25 02:08:06;;;;;;;8.85;7.85;;;;;;;9.19;66.14;99931.78;5044124;28;20055;-25
2022/04/25 02:10:32;;;;;;;10.13;8.00;;;;;;;9.17;66.19;99935.34;5026491;28;20021;-28
2022/04/25 02:12:57;;;;;;;10.20;7.75;;;;;;;9.18;66.29;99939.69;5048071;28;20025;-25
2022/04/25 02:15:22;;;;;;;9.63;8.35;;;;;;;9.15;66.41;99935.38;5031516;28;20071;-25
2022/04/25 02:17:48;;;;;;;9.55;7.75;;;;;;;9.12;66.42;99945.94;5049140;28;20044;-29
2022/04/25 02:20:13;;;;;;;9.55;7.45;;;;;;;9.11;66.61;99947.69;5045287;28;20119;-28
2022/04/25 02:22:39;;;;;;;13.75;8.27;;;;;;;9.08;66.52;99950.38;5048598;28;20052;-26
2022/04/25 02:25:05;;;;;;;10.25;8.75;;;;;;;9.08;66.51;99955.63;5046350;28;20022;-25
2022/04/25 02:27:30;;;;;;;11.85;8.77;;;;;;;9.05;66.69;99955.69;5028517;28;20468;-27
2022/04/25 02:29:59;;;;;;;9.32;8.38;;;;;;;9.06;66.44;99959.16;5047449;28;20051;-25
2022/04/25 02:32:27;;;;;;;11.05;8.60;;;;;;;9.04;66.36;99958.31;5045728;28;20017;-29
2022/04/25 02:34:54;;;;;;;13.05;9.02;;;;;;;9.00;66.46;99956.63;5043956;28;20020;-24
2022/04/25 02:37:20;;;;;;;10.25;8.27;;;;;;;9.01;66.68;99953.09;5047555;28;20078;-24
2022/04/25 02:39:45;;;;;;;10.07;8.43;;;;;;;8.98;66.72;99959.28;5044864;28;20408;-26
2022/04/25 02:42:10;;;;;;;12.18;8.75;;;;;;;8.97;66.72;99962.81;5041013;28;20029;-28
2022/04/25 02:44:36;;;;;;;10.43;8.27;;;;;;;8.94;66.68;99968.97;5030022;28;20033;-25
2022/04/25 02:47:01;;;;;;;10.25;8.70;;;;;;;8.92;66.64;99975.13;5043796;28;20032;-24
2022/04/25 02:49:26;;;;;;;12.60;8.75;;;;;;;8.89;66.89;99977.78;5044812;28;20447;-26
2022/04/25 02:51:52;;;;;;;10.15;8.57;;;;;;;8.88;66.73;99984.84;5042068;28;20037;-24
2022/04/25 02:54:17;;;;;;;10.45;8.43;;;;;;;8.85;66.82;99974.34;5043330;28;20029;-26
2022/04/25 02:56:42;;;;;;;13.43;9.48;;;;;;;8.84;67.01;99989.25;5047150;28;20021;-26
2022/04/25 02:59:08;;;;;;;13.80;9.25;;;;;;;8.83;66.73;99982.25;5044096;28;20466;-24
2022/04/25 03:01:34;;;;;;;9.65;8.65;;;;;;;8.82;66.83;99983.16;5029621;28;20029;-25
2022/04/25 03:03:59;;;;;;;11.65;9.27;;;;;;;8.80;66.88;99971.78;5048847;28;20029;-25
2022/04/25 03:06:25;;;;;;;10.98;9.75;;;;;;;8.76;66.74;99983.22;5045329;28;20111;-32
2022/04/25 03:08:50;;;;;;;13.05;8.95;;;;;;;8.76;66.64;99979.72;5043046;28;20115;-29
2022/04/25 03:11:16;;;;;;;12.38;9.05;;;;;;;8.73;66.71;99975.38;5028523;28;20035;-31
2022/04/25 03:13:42;;;;;;;10.57;9.23;;;;;;;8.72;66.93;99978.91;5061708;28;20029;-25
2022/04/25 03:16:09;;;;;;;13.57;9.85;;;;;;;8.71;66.55;99982.44;5043045;28;20025;-27
2022/04/25 03:18:34;;;;;;;11.60;9.25;;;;;;;8.69;66.83;99986.81;5050309;28;20033;-25
2022/04/25 03:21:00;;;;;;;11.88;9.80;;;;;;;8.68;66.73;99988.59;5049883;28;20137;-25
2022/04/25 03:23:25;;;;;;;11.52;9.40;;;;;;;8.67;67.00;99992.09;5045418;28;20029;-24
2022/04/25 03:25:51;;;;;;;15.40;9.48;;;;;;;8.63;67.02;99993.03;5045757;28;20024;-27
2022/04/25 03:28:17;;;;;;;12.32;9.23;;;;;;;8.62;66.84;99991.28;5042474;28;20048;-26
2022/04/25 03:30:43;;;;;;;12.32;9.75;;;;;;;8.63;66.87;99997.44;5044154;28;20029;-24
2022/04/25 03:33:12;;;;;;;11.93;10.32;;;;;;;8.62;66.75;99993.03;5045239;28;20040;-30
2022/04/25 03:35:38;;;;;;;12.40;9.52;;;;;;;8.60;66.93;99998.31;5044159;28;20021;-25
2022/04/25 03:38:06;;;;;;;12.45;9.77;;;;;;;8.56;67.23;100000.13;5043716;28;20041;-24
2022/04/25 03:40:31;;;;;;;10.52;9.32;;;;;;;8.55;67.23;100003.63;5039009;28;20025;-30
2022/04/25 03:42:56;;;;;;;14.00;11.00;;;;;;;8.55;67.07;100014.16;5038910;28;20033;-27
2022/04/25 03:45:22;;;;;;;13.65;10.45;;;;;;;8.53;67.31;100010.66;5043961;28;20021;-24
2022/04/25 03:47:47;;;;;;;11.68;9.13;;;;;;;8.51;67.06;100007.16;5044795;28;20167;-24
2022/04/25 03:50:14;;;;;;;12.82;10.27;;;;;;;8.51;66.96;100011.53;5031234;28;20132;-25
2022/04/25 03:52:42;;;;;;;12.25;10.20;;;;;;;8.50;66.91;100005.41;5046102;28;20032;-25
2022/04/25 03:57:56;;;;;;;10.82;9.73;;;;;;;8.46;67.20;100008.94;5040123;28;20048;-24
2022/04/25 04:00:21;;;;;;;13.05;9.50;;;;;;;8.43;67.09;100015.13;5047716;28;20017;-24
2022/04/25 04:02:47;;;;;;;13.75;10.45;;;;;;;8.42;67.16;100017.75;5040314;28;20028;-24
2022/04/25 04:05:13;;;;;;;12.23;10.75;;;;;;;8.42;67.20;100023.00;5040205;28;20185;-27
2022/04/25 04:07:39;;;;;;;13.80;10.40;;;;;;;8.40;67.19;100028.28;5042804;28;20021;-30
2022/04/25 04:10:05;;;;;;;14.50;10.73;;;;;;;8.38;67.09;100023.94;5043871;28;20547;-25
2022/04/25 04:12:31;;;;;;;14.52;10.50;;;;;;;8.37;67.06;100032.72;5044235;28;20473;-27
2022/04/25 04:14:58;;;;;;;14.82;10.75;;;;;;;8.37;67.26;100032.72;5026731;28;20098;-25
2022/04/25 04:17:23;;;;;;;15.43;10.30;;;;;;;8.37;67.37;100041.44;5042544;28;20029;-27
2022/04/25 04:19:49;;;;;;;13.60;10.63;;;;;;;8.33;67.44;100043.25;5045849;28;20113;-24
2022/04/25 04:22:15;;;;;;;12.13;10.07;;;;;;;8.32;67.43;100044.16;5038785;28;20033;-27
2022/04/25 04:24:40;;;;;;;12.23;10.15;;;;;;;8.31;67.17;100047.63;5043592;28;20036;-27
2022/04/25 04:27:06;;;;;;;13.98;9.95;;;;;;;8.31;66.83;100050.25;5046915;28;20026;-24
2022/04/25 04:29:32;;;;;;;13.05;10.15;;;;;;;8.29;67.78;100054.69;5045025;28;20032;-27
2022/04/25 04:31:59;;;;;;;13.77;9.73;;;;;;;8.28;67.67;100063.47;5046170;28;20063;-24
2022/04/25 04:34:24;;;;;;;15.48;10.82;;;;;;;8.28;67.61;100068.72;5044123;28;20513;-24
2022/04/25 04:36:51;;;;;;;16.60;10.35;;;;;;;8.26;67.51;100069.59;5048418;28;20139;-25
2022/04/25 04:39:16;;;;;;;14.85;10.48;;;;;;;8.25;67.81;100076.63;5042346;28;20447;-24
2022/04/25 04:41:41;;;;;;;15.32;11.13;;;;;;;8.24;67.61;100074.88;5022241;28;20025;-24
2022/04/25 04:44:07;;;;;;;13.55;10.63;;;;;;;8.24;67.48;100082.75;5028035;28;20036;-29
2022/04/25 04:46:32;;;;;;;13.85;10.30;;;;;;;8.22;67.42;100084.50;5041555;28;20025;-24
2022/04/25 04:48:57;;;;;;;13.95;11.45;;;;;;;8.22;67.92;100089.78;5042465;28;20028;-26
2022/04/25 04:51:23;;;;;;;13.50;10.38;;;;;;;8.23;67.21;100090.66;5038693;28;20086;-24
2022/04/25 04:53:48;;;;;;;15.68;10.18;;;;;;;8.20;67.90;100088.91;5041051;28;20230;-25
2022/04/25 04:56:13;;;;;;;12.15;9.75;;;;;;;8.19;67.78;100092.41;5043351;28;20057;-25
2022/04/25 04:58:39;;;;;;;14.13;10.82;;;;;;;8.18;67.62;100088.06;5042770;28;20032;-25
2022/04/25 05:01:04;;;;;;;15.50;11.93;;;;;;;8.18;67.63;100088.06;5043474;28;20653;-24
2022/04/25 05:03:30;;;;;;;13.82;11.70;;;;;;;8.17;67.50;100091.56;5041602;28;20075;-27
2022/04/25 05:05:55;;;;;;;15.25;11.18;;;;;;;8.16;67.48;100089.81;5044101;28;20078;-24
2022/04/25 05:08:20;;;;;;;15.48;10.85;;;;;;;8.15;67.54;100095.97;5044813;28;20055;-28
2022/04/25 05:10:46;;;;;;;14.48;11.02;;;;;;;8.15;67.71;100102.09;5040179;28;20060;-26
2022/04/25 05:13:12;;;;;;;13.15;10.85;;;;;;;8.14;67.85;100097.69;5042824;28;20459;-25
2022/04/25 05:15:37;;;;;;;13.50;11.43;;;;;;;8.13;67.96;100105.63;5042548;28;20029;-25
2022/04/25 05:18:03;;;;;;;15.45;11.85;;;;;;;8.14;68.01;100112.63;5043511;28;20051;-26
2022/04/25 05:20:29;;;;;;;14.25;11.50;;;;;;;8.13;67.91;100108.25;5043777;28;20033;-27
2022/04/25 05:22:55;;;;;;;17.85;12.38;;;;;;;8.11;67.84;100117.88;5043004;28;20411;-29
2022/04/25 05:25:23;;;;;;;15.05;10.68;;;;;;;8.11;68.08;100120.50;5025747;28;20044;-25
2022/04/25 05:27:50;;;;;;;13.60;11.60;;;;;;;8.10;67.96;100127.50;5024502;28;20020;-24
2022/04/25 05:30:17;;;;;;;13.25;11.05;;;;;;;8.09;68.12;100131.91;5023185;28;20021;-24
2022/04/25 05:32:43;;;;;;;16.48;12.73;;;;;;;8.08;67.85;100132.78;5042007;28;20043;-24
2022/04/25 05:35:08;;;;;;;16.05;11.95;;;;;;;8.08;67.94;100114.38;5045192;28;20033;-28
2022/04/25 05:37:34;;;;;;;15.85;12.15;;;;;;;8.06;68.22;100108.28;5045041;28;20112;-25
2022/04/25 05:39:59;;;;;;;17.80;11.95;;;;;;;8.07;68.34;100112.66;5045047;28;20029;-31
2022/04/25 05:42:24;;;;;;;16.75;12.35;;;;;;;8.05;68.13;100103.94;5041187;28;20492;-25
2022/04/25 05:44:50;;;;;;;17.52;11.75;;;;;;;8.04;68.21;100111.81;5044310;28;20098;-24
2022/04/25 05:47:15;;;;;;;16.20;11.77;;;;;;;8.05;68.12;100118.81;5043115;28;20025;-26
2022/04/25 05:52:24;;;;;;;15.77;12.75;;;;;;;8.04;68.30;100136.31;5037796;28;20044;-26
2022/04/25 05:54:49;;;;;;;15.73;11.77;;;;;;;8.04;68.34;100138.94;5042870;28;20025;-27
2022/04/25 05:57:15;;;;;;;15.90;10.70;;;;;;;8.03;68.42;100139.81;5042716;28;20119;-24
2022/04/25 05:59:40;;;;;;;19.85;12.75;;;;;;;8.03;68.22;100137.19;5027298;28;20541;-28
2022/04/25 06:02:07;;;;;;;14.52;11.85;;;;;;;8.03;68.17;100137.19;5045188;28;20024;-25
2022/04/25 06:04:32;;;;;;;16.40;13.05;;;;;;;8.04;68.12;100144.19;5045649;28;20107;-30
2022/04/25 06:06:58;;;;;;;15.80;12.15;;;;;;;8.04;68.23;100143.34;5049050;28;20130;-24
2022/04/25 06:09:26;;;;;;;17.67;12.23;;;;;;;8.04;68.41;100151.22;5044542;28;20491;-28
2022/04/25 06:11:52;;;;;;;17.40;11.95;;;;;;;8.04;68.25;100159.94;5027277;28;20500;-24
2022/04/25 06:14:18;;;;;;;20.42;12.88;;;;;;;8.03;68.52;100152.94;5047419;28;20112;-27
2022/04/25 06:16:43;;;;;;;18.75;12.70;;;;;;;8.04;68.32;100157.31;5026158;28;20125;-25
2022/04/25 06:19:09;;;;;;;16.88;12.70;;;;;;;8.04;68.64;100162.56;5047523;28;20399;-28
2022/04/25 06:21:34;;;;;;;21.08;12.80;;;;;;;8.04;68.94;100162.56;5030851;28;20044;-33
2022/04/25 06:24:00;;;;;;;17.90;12.40;;;;;;;8.05;68.43;100166.97;5046353;28;20033;-24
2022/04/25 06:26:26;;;;;;;17.02;12.02;;;;;;;8.06;68.99;100165.19;5040618;28;20021;-24
2022/04/25 06:28:51;;;;;;;19.67;12.88;;;;;;;8.06;68.76;100166.06;5048789;28;20535;-25
2022/04/25 06:31:16;;;;;;;18.15;12.57;;;;;;;8.07;68.78;100172.22;5026764;28;20020;-24
2022/04/25 06:33:42;;;;;;;19.70;12.90;;;;;;;8.07;68.86;100175.69;5029622;28;20112;-24
2022/04/25 06:36:07;;;;;;;15.05;12.55;;;;;;;8.08;68.67;100171.31;5043242;28;20025;-25
2022/04/25 06:38:32;;;;;;;15.40;12.63;;;;;;;8.10;68.79;100180.03;5030039;28;20025;-24
2022/04/25 06:40:58;;;;;;;17.85;13.00;;;;;;;8.11;69.03;100181.81;5047715;28;20036;-24
2022/04/25 06:43:23;;;;;;;16.98;12.05;;;;;;;8.09;69.30;100183.56;5045076;28;20064;-27
2022/04/25 06:45:49;;;;;;;17.98;12.63;;;;;;;8.12;69.25;100195.78;5047612;28;20017;-24
2022/04/25 06:48:14;;;;;;;17.75;12.30;;;;;;;8.13;69.49;100189.69;5046240;28;20021;-26
2022/04/25 06:50:40;;;;;;;19.85;13.73;;;;;;;8.14;69.21;100188.78;5047139;28;20458;-28
2022/04/25 06:53:05;;;;;;;17.63;11.65;;;;;;;8.14;69.38;100184.38;5046216;28;20038;-25
2022/04/25 06:55:31;;;;;;;17.20;12.95;;;;;;;8.16;69.20;100193.16;5049036;28;20029;-24
2022/04/25 06:57:56;;;;;;;19.25;12.57;;;;;;;8.16;69.72;100189.63;5045250;28;20546;-26
2022/04/25 07:00:22;;;;;;;15.77;12.32;;;;;;;8.17;69.39;100191.41;5046571;28;20049;-24
2022/04/25 07:02:48;;;;;;;15.85;12.40;;;;;;;8.19;69.41;100200.13;5047438;28;20036;-25
2022/04/25 07:05:13;;;;;;;17.20;13.30;;;;;;;8.19;69.37;100197.50;5049228;28;20497;-24
2022/04/25 07:07:39;;;;;;;15.55;12.63;;;;;;;8.20;69.28;100205.38;5047376;28;20021;-26
2022/04/25 07:10:06;;;;;;;14.05;11.27;;;;;;;8.21;69.57;100201.00;5045011;28;20029;-24
2022/04/25 07:12:31;;;;;;;17.33;12.60;;;;;;;8.21;69.78;100201.00;5044721;28;20064;-33
2022/04/25 07:14:57;;;;;;;16.50;12.52;;;;;;;8.23;69.72;100203.63;5045500;28;20111;-31
2022/04/25 07:17:22;;;;;;;17.00;12.15;;;;;;;8.24;69.66;100211.50;5046256;28;20463;-24
2022/04/25 07:19:47;;;;;;;16.20;12.38;;;;;;;8.26;69.80;100209.72;5044321;28;20025;-24
2022/04/25 07:30:24;;;;;;;17.70;13.13;;;;;;;8.31;69.63;100218.44;5043645;28;20511;-27
2022/04/25 07:32:50;;;;;;;17.35;12.27;;;;;;;8.33;70.09;100224.56;5030203;28;20335;-25
2022/04/25 07:35:15;;;;;;;15.40;12.52;;;;;;;8.34;70.08;100226.28;5040528;28;20070;-28
2022/04/25 07:37:42;;;;;;;16.85;12.35;;;;;;;8.35;70.05;100221.91;5046145;28;20408;-27
2022/04/25 07:40:08;;;;;;;18.00;13.40;;;;;;;8.38;70.17;100236.78;5044887;28;20450;-26
2022/04/25 07:42:35;;;;;;;19.95;13.45;;;;;;;8.39;70.66;100230.63;5044820;28;20020;-28
2022/04/25 07:45:01;;;;;;;15.20;12.40;;;;;;;8.41;70.42;100236.78;5045986;28;20066;-25
2022/04/25 07:47:27;;;;;;;16.02;11.63;;;;;;;8.43;70.55;100240.25;5043002;28;20101;-25
2022/04/25 07:49:52;;;;;;;17.00;13.80;;;;;;;8.42;70.19;100236.75;5032039;28;20020;-26
2022/04/25 07:52:18;;;;;;;17.65;13.00;;;;;;;8.46;70.38;100242.84;5047165;28;20250;-24
2022/04/25 07:54:43;;;;;;;17.90;12.63;;;;;;;8.48;70.54;100246.34;5045366;28;20025;-30
2022/04/25 07:57:09;;;;;;;19.05;13.32;;;;;;;8.49;70.41;100245.47;5046802;28;20033;-24
2022/04/25 07:59:34;;;;;;;17.00;12.82;;;;;;;8.48;70.50;100246.34;5047533;28;20064;-27
2022/04/25 08:02:00;;;;;;;15.25;11.80;;;;;;;8.52;70.35;100252.44;5045197;28;20024;-24
2022/04/25 08:04:25;;;;;;;20.35;13.10;;;;;;;8.53;70.57;100257.72;5043879;28;20168;-24
2022/04/25 08:06:51;;;;;;;17.80;12.80;;;;;;;8.55;70.49;100257.72;5047940;28;20024;-28
2022/04/25 08:09:16;;;;;;;18.15;12.57;;;;;;;8.56;70.59;100262.97;5044152;28;20078;-24
2022/04/25 08:11:42;;;;;;;19.65;13.30;;;;;;;8.59;70.56;100259.44;5045770;28;20029;-25
2022/04/25 08:19:36;;;;;;;18.02;12.77;;;;;;;8.63;70.30;100274.31;5047805;28;20032;-24
2022/04/25 08:22:04;;;;;;;17.48;12.93;;;;;;;8.64;70.50;100272.56;5024561;28;20052;-27
2022/04/25 08:24:30;;;;;;;16.42;13.07;;;;;;;8.65;70.48;100279.56;5045587;28;20111;-25
2022/04/25 08:26:55;;;;;;;15.30;13.40;;;;;;;8.66;70.75;100281.28;5046262;28;20174;-28
2022/04/25 08:29:21;;;;;;;16.67;12.30;;;;;;;8.67;70.57;100286.53;5026604;28;20416;-25
2022/04/25 08:31:47;;;;;;;19.08;12.88;;;;;;;8.68;70.58;100284.81;5026801;28;20458;-26
2022/04/25 08:34:14;;;;;;;18.88;12.93;;;;;;;8.70;70.69;100285.66;5046737;28;20023;-24
2022/04/25 08:36:40;;;;;;;18.50;11.95;;;;;;;8.72;70.11;100289.16;5030065;28;20021;-25
2022/04/25 08:39:05;;;;;;;17.65;12.90;;;;;;;8.74;69.97;100290.03;5043625;28;20025;-24
2022/04/25 08:41:35;;;;;;;17.98;13.68;;;;;;;8.75;70.39;100298.75;5046520;28;20101;-25
2022/04/25 08:44:01;;;;;;;18.40;13.18;;;;;;;8.76;70.66;100295.25;5039360;28;20403;-25
2022/04/25 08:46:28;;;;;;;17.20;13.60;;;;;;;8.78;70.95;100304.88;5042542;28;20044;-25
2022/04/25 08:48:54;;;;;;;22.27;14.02;;;;;;;8.79;70.82;100306.63;5041770;28;20099;-24
2022/04/25 08:51:20;;;;;;;17.17;12.75;;;;;;;8.82;70.41;100303.97;5045698;28;20100;-25
2022/04/25 08:53:46;;;;;;;15.77;13.02;;;;;;;8.81;70.68;100307.47;5045126;28;20078;-24
2022/04/25 08:56:12;;;;;;;18.75;13.75;;;;;;;8.84;70.55;100320.59;5028835;28;20445;-25
2022/04/25 08:58:41;;;;;;;17.48;12.95;;;;;;;8.87;70.60;100318.84;5044462;28;20032;-25
2022/04/25 09:01:10;;;;;;;15.50;12.18;;;;;;;8.88;71.03;100320.59;5046881;28;20052;-25
2022/04/25 09:03:36;;;;;;;17.65;13.50;;;;;;;8.91;70.42;100324.06;5045138;28;20480;-25
2022/04/25 09:06:03;;;;;;;16.55;13.27;;;;;;;8.92;70.61;100332.81;5029222;28;20025;-25
2022/04/25 09:08:28;;;;;;;20.02;13.52;;;;;;;8.95;70.75;100335.44;5045363;28;20047;-24
2022/04/25 09:12:09;;;;;;;21.52;12.40;;;;;;;8.97;70.73;100338.94;5048562;28;20540;-25
2022/04/25 09:13:40;;;;;;;18.25;13.50;;;;;;;8.98;70.73;100338.03;5042856;28;20106;-27
2022/04/25 09:16:06;;;;;;;17.75;13.60;;;;;;;8.98;70.50;100338.91;5044532;28;20540;-24
2022/04/25 09:18:31;;;;;;;18.48;13.25;;;;;;;9.00;71.00;100338.88;5046163;28;20039;-31
2022/04/25 09:20:58;;;;;;;18.27;13.63;;;;;;;9.03;70.90;100343.28;5045268;28;20270;-25
2022/04/25 09:23:23;;;;;;;15.90;12.98;;;;;;;9.06;70.81;100344.13;5044374;28;20397;-25
2022/04/25 09:26:29;;;;;;;15.38;12.65;;;;;;;9.06;70.79;100346.75;5045423;28;20025;-26
2022/04/25 09:28:56;;;;;;;16.45;12.13;;;;;;;9.11;70.86;100350.19;4990312;28;20152;-26
2022/04/25 09:31:25;;;;;;;18.13;12.13;;;;;;;9.15;70.45;100352.81;4993065;28;20030;-25
2022/04/25 09:33:50;;;;;;;16.85;12.73;;;;;;;9.17;70.19;100353.69;5016212;28;20558;-25
2022/04/25 09:36:16;;;;;;;17.65;12.32;;;;;;;9.20;70.07;100359.78;5030367;28;20059;-28
2022/04/25 09:38:42;;;;;;;19.40;13.60;;;;;;;9.23;70.45;100359.75;5047979;28;20035;-28
2022/04/25 09:41:09;;;;;;;20.85;12.68;;;;;;;9.25;70.27;100362.38;5046968;28;20366;-26
2022/04/25 09:43:38;;;;;;;16.92;13.13;;;;;;;9.26;70.48;100358.84;5047459;28;20029;-32
2022/04/25 09:46:12;;;;;;;18.60;13.27;;;;;;;9.30;70.93;100365.84;5047485;28;20017;-24
2022/04/25 09:48:41;;;;;;;17.45;13.75;;;;;;;9.33;70.76;100364.94;5047564;28;20027;-24
2022/04/25 09:51:08;;;;;;;16.98;13.43;;;;;;;9.36;70.86;100371.06;5046042;28;20021;-28
2022/04/25 09:53:45;;;;;;;17.27;12.55;;;;;;;9.40;70.63;100361.34;5048614;28;20021;-24
2022/04/25 09:56:27;;;;;;;18.23;13.27;;;;;;;9.43;70.58;100370.97;5049522;28;20531;-24
2022/04/25 09:59:09;;;;;;;15.52;13.02;;;;;;;9.46;70.63;100370.97;5063100;28;20036;-27
2022/04/25 10:01:37;;;;;;;19.05;13.00;;;;;;;9.49;70.62;100366.56;5046694;28;20031;-27
2022/04/25 10:04:04;;;;;;;15.75;13.25;;;;;;;9.53;70.42;100367.38;5047000;28;20025;-24
2022/04/25 10:06:34;;;;;;;15.20;12.90;;;;;;;9.57;69.97;100371.72;5032489;28;20013;-26
2022/04/25 10:09:04;;;;;;;14.07;12.60;;;;;;;9.59;70.18;100375.22;5049205;28;20021;-27
2022/04/25 10:11:33;;;;;;;17.08;12.65;;;;;;;9.65;70.45;100381.31;5049550;28;20396;-25
2022/04/25 10:13:59;;;;;;;16.73;13.25;;;;;;;9.66;70.05;100380.41;5049613;28;20025;-27
2022/04/25 10:16:25;;;;;;;17.42;12.40;;;;;;;9.71;69.90;100381.25;5045589;28;20035;-25
2022/04/25 10:18:51;;;;;;;15.35;13.23;;;;;;;9.73;69.52;100390.00;5049557;28;20036;-25
2022/04/25 10:21:16;;;;;;;16.77;13.52;;;;;;;9.78;69.49;100388.22;5046645;28;20443;-25
2022/04/25 10:23:43;;;;;;;17.83;13.50;;;;;;;9.83;69.43;100396.94;5049089;28;20047;-24
2022/04/25 10:26:09;;;;;;;15.88;12.48;;;;;;;9.88;69.65;100395.09;5046846;28;20115;-24
2022/04/25 10:28:50;;;;;;;17.00;13.15;;;;;;;9.93;69.10;100396.81;5045132;28;20028;-28
2022/04/25 10:31:30;;;;;;;16.88;12.95;;;;;;;9.97;69.41;100399.41;5045491;28;20021;-24
2022/04/25 10:33:58;;;;;;;16.23;13.13;;;;;;;10.01;69.01;100393.22;5046325;28;20520;-26
2022/04/25 10:36:36;;;;;;;18.58;13.13;;;;;;;10.08;68.64;100401.06;5048625;28;20032;-25
2022/04/25 10:39:20;;;;;;;16.65;13.15;;;;;;;10.11;69.10;100408.94;5046660;28;20507;-25
2022/04/25 10:44:42;;;;;;;16.33;12.68;;;;;;;10.21;68.44;100404.44;5045751;28;20112;-24
2022/04/25 10:47:09;;;;;;;15.05;13.25;;;;;;;10.25;68.65;100406.13;5047262;28;20025;-24
2022/04/25 10:49:37;;;;;;;13.48;12.07;;;;;;;10.32;68.48;100410.44;5047133;28;20376;-27
2022/04/25 10:52:26;;;;;;;15.63;12.70;;;;;;;10.33;68.31;100404.28;5047003;28;20489;-24
2022/04/25 10:55:09;;;;;;;17.35;11.88;;;;;;;10.40;68.02;100411.22;5048311;28;20033;-25
2022/04/25 10:57:35;;;;;;;15.95;12.00;;;;;;;10.47;67.83;100408.53;5046049;28;20539;-28
2022/04/25 11:00:01;;;;;;;17.50;13.85;;;;;;;10.50;68.16;100412.00;5029051;28;20033;-24
2022/04/25 11:02:28;;;;;;;16.23;12.40;;;;;;;10.54;67.52;100414.59;5028843;28;20028;-24
2022/04/25 11:05:11;;;;;;;15.30;12.43;;;;;;;10.59;67.75;100418.94;5047310;28;20021;-24
2022/04/25 11:07:40;;;;;;;17.35;12.38;;;;;;;10.63;67.89;100418.00;5047457;28;20108;-27
2022/04/25 11:10:05;;;;;;;14.15;12.07;;;;;;;10.68;67.31;100417.94;5044337;28;20553;-25
2022/04/25 11:12:59;;;;;;;17.45;12.00;;;;;;;10.73;67.66;100412.56;5045701;28;20017;-25
2022/04/25 11:15:45;;;;;;;14.25;11.75;;;;;;;10.79;67.43;100415.13;5048091;28;20028;-26
2022/04/25 11:18:20;;;;;;;12.60;11.30;;;;;;;10.84;67.58;100413.28;5047414;28;20072;-27
2022/04/25 11:20:59;;;;;;;13.18;11.77;;;;;;;10.88;67.06;100415.00;5046645;28;20024;-27
2022/04/25 11:23:29;;;;;;;16.02;12.65;;;;;;;10.95;67.43;100421.06;5046196;28;20021;-32
2022/04/25 11:25:55;;;;;;;16.05;12.75;;;;;;;10.99;67.13;100422.78;5048802;28;20025;-26
2022/04/25 11:28:21;;;;;;;17.20;13.00;;;;;;;11.03;66.98;100429.75;5043894;28;20025;-24
2022/04/25 11:31:18;;;;;;;15.40;13.18;;;;;;;11.10;66.82;100438.44;5030646;28;20024;-26
2022/04/25 11:33:47;;;;;;;16.13;12.68;;;;;;;11.18;66.77;100445.38;5045186;28;20393;-24
2022/04/25 11:36:13;;;;;;;16.17;13.40;;;;;;;11.21;66.91;100442.69;5046051;28;20555;-26
2022/04/25 11:41:25;;;;;;;15.85;13.02;;;;;;;11.31;66.54;100446.06;5039117;28;20067;-27
2022/04/25 11:43:51;;;;;;;15.02;11.35;;;;;;;11.36;66.47;100446.84;5040459;28;20717;-26
2022/04/25 11:46:17;;;;;;;15.35;12.65;;;;;;;11.40;66.52;100449.41;5027800;28;20028;-24
2022/04/25 11:48:42;;;;;;;14.93;11.50;;;;;;;11.45;66.23;100448.47;5045835;28;20370;-24
2022/04/25 11:51:08;;;;;;;18.17;12.48;;;;;;;11.50;66.32;100449.25;5048624;28;20096;-26